DW9240 Weather Reports


Display with metric or nautical units.
time (UTC)temp
F
wind
direction
speed
MPH
gust
MPH
rain 1hr
in
rain 24hr
in
rain mn
in
humidity
%
barometer
mb
20210731183104 88 158 1.0 5.0 0.00 0.08 0.00 45 1012.8
20210731181538 87 136 0.0 5.0 0.00 0.08 0.00 46 1013.1
20210731180059 87 136 1.0 4.0 0.00 0.08 0.00 46 1013.3
20210731174530 87 134 0.0 2.0 0.00 0.08 0.00 47 1013.4
20210731173026 85 133 1.0 4.0 0.00 0.08 0.00 48 1013.4
20210731171556 84 129 2.0 6.0 0.00 0.08 0.00 50 1013.5
20210731170020 84 126 1.0 4.0 0.00 0.08 0.00 51 1013.5
20210731164519 83 126 1.0 5.0 0.00 0.08 0.00 55 1013.3
20210731163014 82 126 1.0 5.0 0.00 0.08 0.00 57 1013.4
20210731161504 80 126 1.0 7.0 0.00 0.08 0.00 58 1013.4
20210731160143 79 126 1.0 6.0 0.00 0.08 0.00 63 1013.4
20210731154627 78 127 3.0 7.0 0.00 0.08 0.00 66 1013.4
20210731153126 77 128 2.0 7.0 0.00 0.08 0.00 70 1013.5
20210731151711 76 130 1.0 7.0 0.00 0.08 0.00 73 1013.4
20210731150147 75 131 1.0 7.0 0.00 0.08 0.00 76 1013.2
20210731144754 74 106 2.0 8.0 0.00 0.08 0.00 77 1013.0
20210731143159 73 103 2.0 6.0 0.00 0.08 0.00 79 1012.9
20210731141607 72 57 1.0 5.0 0.00 0.08 0.00 83 1012.7
20210731140121 71 29 2.0 6.0 0.00 0.08 0.00 86 1012.6
20210731134552 70 27 0.0 1.0 0.00 0.08 0.00 86 1012.4
20210731133119 70 27 0.0 1.0 0.00 0.08 0.00 86 1012.1
20210731131554 69 27 0.0 0.0 0.00 0.08 0.00 87 1012.0
20210731130101 69 27 0.0 3.0 0.00 0.08 0.00 87 1011.8
20210731124616 70 27 0.0 0.0 0.00 0.08 0.00 87 1011.7
20210731123215 70 27 0.0 1.0 0.00 0.08 0.00 87 1011.5
20210731121617 70 27 0.0 0.0 0.00 0.08 0.00 86 1011.4
20210731120040 70 27 1.0 4.0 0.00 0.08 0.00 86 1011.4
20210731114535 70 27 0.0 4.0 0.00 0.08 0.00 86 1011.4
20210731113131 70 27 2.0 5.0 0.00 0.08 0.00 85 1011.4
20210731111618 70 27 2.0 6.0 0.00 0.08 0.00 85 1011.5
20210731110118 70 27 4.0 7.0 0.00 0.08 0.00 86 1011.5
20210731104633 70 23 4.0 8.0 0.00 0.08 0.00 86 1011.7
20210731103109 70 265 2.0 4.0 0.00 0.08 0.00 87 1011.9
20210731101544 71 230 0.0 3.0 0.00 0.08 0.00 87 1011.9
20210731100113 71 229 0.0 0.0 0.00 0.08 0.00 86 1012.1
20210731094524 71 230 0.0 2.0 0.00 0.08 0.00 86 1012.3
20210731093048 71 230 0.0 2.0 0.00 0.08 0.00 85 1012.5
20210731091527 71 230 0.0 2.0 0.00 0.08 0.00 85 1012.4
20210731090045 71 230 0.0 2.0 0.00 0.08 0.00 85 1012.6
20210731084546 71 229 1.0 4.0 0.00 0.08 0.00 85 1012.7
20210731083048 71 230 1.0 3.0 0.00 0.08 0.00 85 1012.5
20210731081617 71 230 1.0 3.0 0.00 0.08 0.00 85 1012.4
20210731080038 70 230 0.0 3.0 0.00 0.08 0.00 85 1012.3
20210731074522 70 222 2.0 5.0 0.00 0.08 0.00 86 1012.3
20210731073118 71 206 1.0 6.0 0.00 0.08 0.00 86 1012.4
20210731071529 72 202 1.0 8.0 0.00 0.08 0.00 86 1012.5
20210731070016 72 60 0.0 3.0 0.00 0.08 0.08 85 1012.3
20210731064511 72 60 0.0 1.0 0.00 0.08 0.08 84 1012.5
20210731063016 71 60 2.0 4.0 0.00 0.08 0.08 85 1012.4
20210731061505 71 66 1.0 5.0 0.00 0.08 0.08 87 1012.4
20210731060007 71 71 2.0 4.0 0.01 0.09 0.08 85 1012.4
20210731054513 71 71 0.0 3.0 0.01 0.09 0.08 83 1012.3
20210731053006 71 57 4.0 10.0 0.07 0.09 0.08 83 1012.3
20210731051503 70 343 4.0 7.0 0.08 0.09 0.08 84 1011.9
20210731050023 70 351 4.0 7.0 0.07 0.09 0.07 85 1012.0
20210731044502 70 110 0.0 6.0 0.07 0.09 0.07 83 1012.4
20210731043005 71 115 6.0 21.0 0.01 0.03 0.01 77 1012.9
20210731041732 75 106 6.0 20.0 0.00 0.02 0.00 66 1012.7
20210731040420 77 136 10.0 28.0 0.00 0.02 0.00 60 1012.2
20210731034625 83 140 9.0 19.0 0.00 0.02 0.00 47 1011.3
20210731033101 83 152 4.0 16.0 0.00 0.02 0.00 54 1010.7
20210731031636 84 118 4.0 7.0 0.00 0.02 0.00 51 1010.6
20210731030203 83 254 1.0 4.0 0.00 0.02 0.00 50 1009.9
20210731024656 83 253 0.0 4.0 0.00 0.02 0.00 50 1009.9
20210731023203 83 253 3.0 6.0 0.00 0.02 0.00 50 1009.7
20210731021707 83 249 3.0 9.0 0.00 0.02 0.00 50 1009.5
20210731020141 84 213 1.0 13.0 0.00 0.02 0.00 46 1009.7
20210731014925 87 200 6.0 12.0 0.00 0.02 0.00 39 1009.4
20210731013133 93 12 4.0 10.0 0.00 0.02 0.00 37 1008.9
20210731011633 94 306 0.0 5.0 0.00 0.02 0.00 33 1008.5
20210731010305 93 308 0.0 7.0 0.00 0.02 0.00 33 1008.1
20210731004653 93 312 3.0 6.0 0.00 0.02 0.00 35 1007.7
20210731003202 93 342 2.0 10.0 0.00 0.02 0.00 36 1007.7
20210731001624 92 333 5.0 13.0 0.00 0.02 0.00 36 1007.9
20210731000103 91 323 4.0 15.0 0.00 0.02 0.00 38 1008.0
20210730234605 94 347 6.0 15.0 0.00 0.02 0.00 33 1008.1
20210730233113 97 31 7.0 12.0 0.00 0.02 0.00 31 1008.4
20210730231644 97 212 4.0 10.0 0.00 0.02 0.00 29 1008.1
20210730230121 96 201 4.0 8.0 0.00 0.02 0.00 30 1008.2
20210730224719 97 205 4.0 10.0 0.00 0.02 0.00 29 1008.2
20210730223109 97 188 2.0 8.0 0.00 0.02 0.00 29 1008.0
20210730221614 97 294 3.0 7.0 0.00 0.02 0.00 29 1008.2
20210730220149 97 118 5.0 12.0 0.00 0.02 0.00 30 1008.4
20210730214641 95 106 4.0 8.0 0.00 0.02 0.00 30 1008.7
20210730213146 95 108 4.0 8.0 0.00 0.02 0.00 31 1008.7
20210730211601 95 113 6.0 11.0 0.00 0.02 0.00 31 1009.0
20210730210048 95 112 2.0 7.0 0.00 0.02 0.00 31 1009.2
20210730204627 94 141 6.0 11.0 0.00 0.02 0.00 32 1009.4
20210730203101 93 134 5.0 10.0 0.00 0.02 0.00 34 1009.6
20210730201546 94 120 4.0 12.0 0.00 0.02 0.00 32 1009.7
20210730200116 93 123 2.0 11.0 0.00 0.02 0.00 32 1009.8
20210730194616 93 117 1.0 8.0 0.00 0.02 0.00 34 1010.1
20210730193035 92 137 4.0 8.0 0.00 0.02 0.00 35 1010.4
20210730191529 92 148 3.0 8.0 0.00 0.02 0.00 35 1010.6
20210730190024 92 165 3.0 10.0 0.00 0.02 0.00 36 1010.8
20210730184519 91 137 1.0 12.0 0.00 0.02 0.00 37 1010.9